sensor_id;sensor_type;location;lat;lon;timestamp;pressure;altitude;pressure_sealevel;temperature;humidity
54666;BME280;40566;50.006;36.180;2023-05-20T00:02:59;100229.38;;;17.53;48.62
54666;BME280;40566;50.006;36.180;2023-05-20T00:08:00;100225.09;;;17.52;48.81
54666;BME280;40566;50.006;36.180;2023-05-20T00:13:04;100230.38;;;17.51;49.41
54666;BME280;40566;50.006;36.180;2023-05-20T00:18:06;100220.75;;;17.51;49.92
54666;BME280;40566;50.006;36.180;2023-05-20T00:23:06;100220.00;;;17.49;50.22
54666;BME280;40566;50.006;36.180;2023-05-20T00:28:07;100233.06;;;17.49;50.68
54666;BME280;40566;50.006;36.180;2023-05-20T00:33:08;100234.84;;;17.49;51.04
54666;BME280;40566;50.006;36.180;2023-05-20T00:38:08;100228.72;;;17.50;51.43
54666;BME280;40566;50.006;36.180;2023-05-20T00:43:09;100224.31;;;17.50;52.15
54666;BME280;40566;50.006;36.180;2023-05-20T00:48:10;100226.88;;;17.52;52.21
54666;BME280;40566;50.006;36.180;2023-05-20T00:53:10;100219.16;;;17.49;52.65
54666;BME280;40566;50.006;36.180;2023-05-20T00:58:11;100222.00;;;17.44;52.83
54666;BME280;40566;50.006;36.180;2023-05-20T01:03:12;100220.66;;;17.35;53.07
54666;BME280;40566;50.006;36.180;2023-05-20T01:08:13;100232.25;;;17.30;53.30
54666;BME280;40566;50.006;36.180;2023-05-20T01:13:16;100210.75;;;17.24;54.01
54666;BME280;40566;50.006;36.180;2023-05-20T01:18:19;100221.41;;;17.20;54.47
54666;BME280;40566;50.006;36.180;2023-05-20T01:23:20;100223.63;;;17.10;54.65
54666;BME280;40566;50.006;36.180;2023-05-20T01:28:21;100219.59;;;17.03;54.91
54666;BME280;40566;50.006;36.180;2023-05-20T01:33:23;100206.09;;;16.93;55.18
54666;BME280;40566;50.006;36.180;2023-05-20T01:38:24;100217.75;;;16.86;55.78
54666;BME280;40566;50.006;36.180;2023-05-20T01:43:26;100216.06;;;16.85;56.08
54666;BME280;40566;50.006;36.180;2023-05-20T01:48:27;100224.06;;;16.80;56.49
54666;BME280;40566;50.006;36.180;2023-05-20T01:53:28;100221.69;;;16.76;56.80
54666;BME280;40566;50.006;36.180;2023-05-20T01:58:28;100228.75;;;16.74;57.36
54666;BME280;40566;50.006;36.180;2023-05-20T02:03:29;100233.19;;;16.72;57.62
54666;BME280;40566;50.006;36.180;2023-05-20T02:08:30;100241.03;;;16.72;57.93
54666;BME280;40566;50.006;36.180;2023-05-20T02:13:30;100229.94;;;16.66;58.20
54666;BME280;40566;50.006;36.180;2023-05-20T02:18:31;100230.88;;;16.65;58.55
54666;BME280;40566;50.006;36.180;2023-05-20T02:23:31;100235.97;;;16.69;58.62
54666;BME280;40566;50.006;36.180;2023-05-20T02:28:32;100245.47;;;16.70;58.92
54666;BME280;40566;50.006;36.180;2023-05-20T02:33:33;100247.19;;;16.71;59.08
54666;BME280;40566;50.006;36.180;2023-05-20T02:38:34;100241.88;;;16.72;59.11
54666;BME280;40566;50.006;36.180;2023-05-20T02:43:34;100248.22;;;16.66;59.13
54666;BME280;40566;50.006;36.180;2023-05-20T02:48:35;100253.72;;;16.60;59.41
54666;BME280;40566;50.006;36.180;2023-05-20T02:53:36;100253.88;;;16.57;60.22
54666;BME280;40566;50.006;36.180;2023-05-20T02:58:36;100258.94;;;16.60;60.35
54666;BME280;40566;50.006;36.180;2023-05-20T03:03:37;100245.75;;;16.63;60.39
54666;BME280;40566;50.006;36.180;2023-05-20T03:08:39;100260.38;;;16.68;60.46
54666;BME280;40566;50.006;36.180;2023-05-20T03:13:41;100254.16;;;16.70;60.66
54666;BME280;40566;50.006;36.180;2023-05-20T03:18:42;100256.56;;;16.75;60.70
54666;BME280;40566;50.006;36.180;2023-05-20T03:23:43;100251.34;;;16.75;61.16
54666;BME280;40566;50.006;36.180;2023-05-20T03:28:43;100249.53;;;16.77;61.14
54666;BME280;40566;50.006;36.180;2023-05-20T03:33:44;100249.09;;;16.86;61.37
54666;BME280;40566;50.006;36.180;2023-05-20T03:38:45;100251.59;;;16.89;61.54
54666;BME280;40566;50.006;36.180;2023-05-20T03:43:45;100253.94;;;16.95;61.69
54666;BME280;40566;50.006;36.180;2023-05-20T03:48:46;100248.69;;;16.95;62.13
54666;BME280;40566;50.006;36.180;2023-05-20T03:53:47;100256.25;;;17.01;62.20
54666;BME280;40566;50.006;36.180;2023-05-20T03:58:47;100262.25;;;17.03;62.12
54666;BME280;40566;50.006;36.180;2023-05-20T04:03:48;100258.56;;;17.08;62.41
54666;BME280;40566;50.006;36.180;2023-05-20T04:08:48;100264.50;;;17.11;62.40
54666;BME280;40566;50.006;36.180;2023-05-20T04:13:49;100264.94;;;17.21;62.20
54666;BME280;40566;50.006;36.180;2023-05-20T04:18:50;100266.25;;;17.30;62.16
54666;BME280;40566;50.006;36.180;2023-05-20T04:23:51;100265.13;;;17.35;62.46
54666;BME280;40566;50.006;36.180;2023-05-20T04:28:52;100259.41;;;17.46;62.52
54666;BME280;40566;50.006;36.180;2023-05-20T04:33:53;100251.19;;;17.54;62.26
54666;BME280;40566;50.006;36.180;2023-05-20T04:38:54;100250.63;;;17.64;62.36
54666;BME280;40566;50.006;36.180;2023-05-20T04:43:55;100251.66;;;17.79;62.22
54666;BME280;40566;50.006;36.180;2023-05-20T04:48:59;100248.47;;;17.92;61.95
54666;BME280;40566;50.006;36.180;2023-05-20T04:54:00;100254.78;;;18.05;62.11
54666;BME280;40566;50.006;36.180;2023-05-20T04:59:01;100255.94;;;18.17;61.48
54666;BME280;40566;50.006;36.180;2023-05-20T05:04:01;100234.50;;;18.26;61.47
54666;BME280;40566;50.006;36.180;2023-05-20T05:09:03;100250.09;;;18.45;61.35
54666;BME280;40566;50.006;36.180;2023-05-20T05:14:04;100247.59;;;18.59;60.76
54666;BME280;40566;50.006;36.180;2023-05-20T05:19:04;100243.53;;;18.70;60.64
54666;BME280;40566;50.006;36.180;2023-05-20T05:24:05;100244.63;;;18.83;60.49
54666;BME280;40566;50.006;36.180;2023-05-20T05:29:06;100245.81;;;18.93;59.96
54666;BME280;40566;50.006;36.180;2023-05-20T05:34:06;100255.47;;;19.09;59.87
54666;BME280;40566;50.006;36.180;2023-05-20T05:39:07;100255.78;;;19.18;59.75
54666;BME280;40566;50.006;36.180;2023-05-20T05:44:07;100263.66;;;19.34;59.61
54666;BME280;40566;50.006;36.180;2023-05-20T05:49:08;100264.00;;;19.44;58.97
54666;BME280;40566;50.006;36.180;2023-05-20T05:54:08;100258.03;;;19.56;59.07
54666;BME280;40566;50.006;36.180;2023-05-20T05:59:09;100253.09;;;19.66;58.48
54666;BME280;40566;50.006;36.180;2023-05-20T06:04:10;100256.09;;;19.76;58.54
54666;BME280;40566;50.006;36.180;2023-05-20T06:09:10;100249.28;;;19.88;58.27
54666;BME280;40566;50.006;36.180;2023-05-20T06:14:11;100246.88;;;19.99;57.88
54666;BME280;40566;50.006;36.180;2023-05-20T06:19:12;100251.47;;;20.10;57.74
54666;BME280;40566;50.006;36.180;2023-05-20T06:24:12;100257.78;;;20.21;57.26
54666;BME280;40566;50.006;36.180;2023-05-20T06:29:13;100265.88;;;20.33;56.95
54666;BME280;40566;50.006;36.180;2023-05-20T06:34:13;100254.81;;;20.42;56.73
54666;BME280;40566;50.006;36.180;2023-05-20T06:39:14;100248.06;;;20.52;56.22
54666;BME280;40566;50.006;36.180;2023-05-20T06:44:14;100257.75;;;20.66;56.29
54666;BME280;40566;50.006;36.180;2023-05-20T06:49:15;100255.94;;;20.81;56.07
54666;BME280;40566;50.006;36.180;2023-05-20T06:54:17;100258.00;;;20.90;55.83
54666;BME280;40566;50.006;36.180;2023-05-20T06:59:18;100252.19;;;20.99;55.53
54666;BME280;40566;50.006;36.180;2023-05-20T07:04:18;100248.75;;;21.12;55.13
54666;BME280;40566;50.006;36.180;2023-05-20T07:09:19;100250.50;;;21.26;54.86
54666;BME280;40566;50.006;36.180;2023-05-20T07:14:20;100238.75;;;21.31;54.33
54666;BME280;40566;50.006;36.180;2023-05-20T07:19:20;100245.94;;;21.42;54.41
54666;BME280;40566;50.006;36.180;2023-05-20T07:24:21;100248.66;;;21.55;54.13
54666;BME280;40566;50.006;36.180;2023-05-20T07:29:21;100247.00;;;21.67;53.86
54666;BME280;40566;50.006;36.180;2023-05-20T07:34:22;100252.19;;;21.81;53.53
54666;BME280;40566;50.006;36.180;2023-05-20T07:39:23;100245.47;;;21.90;53.34
54666;BME280;40566;50.006;36.180;2023-05-20T07:44:23;100256.03;;;22.03;52.91
54666;BME280;40566;50.006;36.180;2023-05-20T07:49:25;100255.94;;;22.17;52.52
54666;BME280;40566;50.006;36.180;2023-05-20T07:59:27;100254.91;;;22.45;51.85
54666;BME280;40566;50.006;36.180;2023-05-20T08:04:27;100257.00;;;22.53;51.71
54666;BME280;40566;50.006;36.180;2023-05-20T08:09:29;100244.16;;;22.61;51.31
54666;BME280;40566;50.006;36.180;2023-05-20T08:14:30;100258.38;;;22.71;50.53
54666;BME280;40566;50.006;36.180;2023-05-20T08:19:31;100256.47;;;22.73;50.26
54666;BME280;40566;50.006;36.180;2023-05-20T08:24:31;100256.66;;;22.83;50.10
54666;BME280;40566;50.006;36.180;2023-05-20T08:29:32;100258.75;;;22.91;49.71
54666;BME280;40566;50.006;36.180;2023-05-20T08:34:33;100261.59;;;23.01;49.41
54666;BME280;40566;50.006;36.180;2023-05-20T08:39:33;100260.00;;;23.11;49.18
54666;BME280;40566;50.006;36.180;2023-05-20T08:44:34;100253.00;;;23.23;48.97
54666;BME280;40566;50.006;36.180;2023-05-20T08:49:35;100256.53;;;23.34;49.01
54666;BME280;40566;50.006;36.180;2023-05-20T08:54:43;100247.59;;;23.48;48.59
54666;BME280;40566;50.006;36.180;2023-05-20T08:59:45;100261.53;;;23.50;48.74
54666;BME280;40566;50.006;36.180;2023-05-20T09:04:46;100257.16;;;23.62;48.35
54666;BME280;40566;50.006;36.180;2023-05-20T09:09:46;100263.31;;;23.74;48.20
54666;BME280;40566;50.006;36.180;2023-05-20T09:14:47;100263.50;;;23.84;47.40
54666;BME280;40566;50.006;36.180;2023-05-20T09:19:52;100238.63;;;23.86;47.26
54666;BME280;40566;50.006;36.180;2023-05-20T09:24:53;100256.09;;;24.00;46.90
54666;BME280;40566;50.006;36.180;2023-05-20T09:29:54;100252.03;;;24.07;46.30
54666;BME280;40566;50.006;36.180;2023-05-20T09:34:55;100242.75;;;24.13;46.24
54666;BME280;40566;50.006;36.180;2023-05-20T09:39:59;100229.56;;;24.24;46.00
54666;BME280;40566;50.006;36.180;2023-05-20T09:45:01;100218.91;;;24.37;45.56
54666;BME280;40566;50.006;36.180;2023-05-20T09:50:05;100221.91;;;24.44;45.19
54666;BME280;40566;50.006;36.180;2023-05-20T09:55:08;100216.03;;;24.51;44.96
54666;BME280;40566;50.006;36.180;2023-05-20T10:00:12;100213.63;;;24.60;44.88
54666;BME280;40566;50.006;36.180;2023-05-20T10:05:18;100219.38;;;24.76;44.80
54666;BME280;40566;50.006;36.180;2023-05-20T10:10:32;100213.94;;;24.89;43.79
54666;BME280;40566;50.006;36.180;2023-05-20T10:15:45;100212.13;;;24.89;43.73
54666;BME280;40566;50.006;36.180;2023-05-20T10:20:49;100216.47;;;24.90;43.88
54666;BME280;40566;50.006;36.180;2023-05-20T10:25:52;100216.19;;;25.05;43.65
54666;BME280;40566;50.006;36.180;2023-05-20T10:30:53;100218.84;;;25.05;43.27
54666;BME280;40566;50.006;36.180;2023-05-20T10:36:00;100214.97;;;25.09;43.11
54666;BME280;40566;50.006;36.180;2023-05-20T10:41:08;100205.00;;;25.12;42.96
54666;BME280;40566;50.006;36.180;2023-05-20T10:46:17;100197.16;;;25.11;42.85
54666;BME280;40566;50.006;36.180;2023-05-20T10:51:19;100198.34;;;25.18;42.52
54666;BME280;40566;50.006;36.180;2023-05-20T10:56:23;100200.41;;;25.14;42.28
54666;BME280;40566;50.006;36.180;2023-05-20T11:01:25;100196.34;;;25.22;41.72
54666;BME280;40566;50.006;36.180;2023-05-20T11:06:27;100193.50;;;25.35;41.34
54666;BME280;40566;50.006;36.180;2023-05-20T11:11:28;100197.56;;;25.39;40.87
54666;BME280;40566;50.006;36.180;2023-05-20T11:16:28;100191.56;;;25.37;40.89
54666;BME280;40566;50.006;36.180;2023-05-20T11:21:29;100189.63;;;25.39;40.68
54666;BME280;40566;50.006;36.180;2023-05-20T11:26:31;100183.59;;;25.48;40.81
54666;BME280;40566;50.006;36.180;2023-05-20T11:31:32;100180.13;;;25.57;40.49
54666;BME280;40566;50.006;36.180;2023-05-20T11:36:33;100183.91;;;25.55;40.35
54666;BME280;40566;50.006;36.180;2023-05-20T11:41:33;100182.53;;;25.60;40.26
54666;BME280;40566;50.006;36.180;2023-05-20T11:46:42;100170.00;;;25.62;40.27
54666;BME280;40566;50.006;36.180;2023-05-20T11:51:43;100173.13;;;25.67;39.91
54666;BME280;40566;50.006;36.180;2023-05-20T11:56:44;100170.59;;;25.66;39.78
54666;BME280;40566;50.006;36.180;2023-05-20T12:01:45;100169.81;;;25.96;38.87
54666;BME280;40566;50.006;36.180;2023-05-20T12:06:48;100159.75;;;26.21;38.72
54666;BME280;40566;50.006;36.180;2023-05-20T12:11:49;100156.91;;;26.12;38.51
54666;BME280;40566;50.006;36.180;2023-05-20T12:16:50;100150.19;;;26.08;38.37
54666;BME280;40566;50.006;36.180;2023-05-20T12:21:52;100140.41;;;25.99;38.00
54666;BME280;40566;50.006;36.180;2023-05-20T12:26:53;100141.50;;;25.97;38.54
54666;BME280;40566;50.006;36.180;2023-05-20T12:31:54;100129.09;;;25.97;38.78
54666;BME280;40566;50.006;36.180;2023-05-20T12:36:55;100125.78;;;26.05;38.92
54666;BME280;40566;50.006;36.180;2023-05-20T12:41:55;100126.25;;;25.89;38.72
54666;BME280;40566;50.006;36.180;2023-05-20T12:46:56;100134.13;;;25.79;39.09
54666;BME280;40566;50.006;36.180;2023-05-20T12:51:56;100141.88;;;25.71;39.33
54666;BME280;40566;50.006;36.180;2023-05-20T12:56:57;100132.25;;;25.70;39.41
54666;BME280;40566;50.006;36.180;2023-05-20T13:01:58;100137.38;;;25.62;39.60
54666;BME280;40566;50.006;36.180;2023-05-20T13:06:59;100124.84;;;25.64;39.75
54666;BME280;40566;50.006;36.180;2023-05-20T13:12:00;100129.56;;;25.60;39.86
54666;BME280;40566;50.006;36.180;2023-05-20T13:17:01;100125.31;;;25.48;39.88
54666;BME280;40566;50.006;36.180;2023-05-20T13:22:02;100119.34;;;25.35;39.86
54666;BME280;40566;50.006;36.180;2023-05-20T13:27:03;100117.94;;;25.30;39.91
54666;BME280;40566;50.006;36.180;2023-05-20T13:32:04;100123.22;;;25.30;39.74
54666;BME280;40566;50.006;36.180;2023-05-20T13:37:05;100118.66;;;25.21;40.10
54666;BME280;40566;50.006;36.180;2023-05-20T13:42:06;100122.22;;;25.10;40.15
54666;BME280;40566;50.006;36.180;2023-05-20T13:47:06;100124.78;;;25.01;40.30
54666;BME280;40566;50.006;36.180;2023-05-20T13:52:08;100123.00;;;24.90;40.65
54666;BME280;40566;50.006;36.180;2023-05-20T13:57:09;100134.47;;;24.79;40.65
54666;BME280;40566;50.006;36.180;2023-05-20T14:02:09;100129.19;;;24.68;40.60
54666;BME280;40566;50.006;36.180;2023-05-20T14:07:10;100132.59;;;24.59;40.78
54666;BME280;40566;50.006;36.180;2023-05-20T14:12:11;100129.47;;;24.53;40.90
54666;BME280;40566;50.006;36.180;2023-05-20T14:17:11;100112.38;;;24.46;40.74
54666;BME280;40566;50.006;36.180;2023-05-20T14:22:12;100123.81;;;24.35;41.07
54666;BME280;40566;50.006;36.180;2023-05-20T14:27:14;100121.78;;;24.28;40.92
54666;BME280;40566;50.006;36.180;2023-05-20T14:32:15;100116.50;;;24.17;41.09
54666;BME280;40566;50.006;36.180;2023-05-20T14:37:15;100126.38;;;24.03;41.30
54666;BME280;40566;50.006;36.180;2023-05-20T14:42:16;100110.63;;;23.90;41.15
54666;BME280;40566;50.006;36.180;2023-05-20T14:47:17;100109.53;;;23.82;41.33
54666;BME280;40566;50.006;36.180;2023-05-20T14:52:21;100116.84;;;23.78;41.39
54666;BME280;40566;50.006;36.180;2023-05-20T14:57:22;100120.16;;;23.69;41.38
54666;BME280;40566;50.006;36.180;2023-05-20T15:02:22;100105.97;;;23.59;41.64
54666;BME280;40566;50.006;36.180;2023-05-20T15:07:23;100112.78;;;23.50;41.80
54666;BME280;40566;50.006;36.180;2023-05-20T15:12:24;100131.63;;;23.45;41.72
54666;BME280;40566;50.006;36.180;2023-05-20T15:17:24;100139.28;;;23.37;41.68
54666;BME280;40566;50.006;36.180;2023-05-20T15:22:25;100137.13;;;23.31;41.81
54666;BME280;40566;50.006;36.180;2023-05-20T15:27:26;100140.22;;;23.25;41.72
54666;BME280;40566;50.006;36.180;2023-05-20T15:32:26;100142.91;;;23.12;41.96
54666;BME280;40566;50.006;36.180;2023-05-20T15:37:27;100148.03;;;23.02;42.13
54666;BME280;40566;50.006;36.180;2023-05-20T15:42:28;100154.69;;;22.95;42.06
54666;BME280;40566;50.006;36.180;2023-05-20T15:47:28;100164.34;;;22.83;42.20
54666;BME280;40566;50.006;36.180;2023-05-20T15:52:29;100163.44;;;22.71;42.07
54666;BME280;40566;50.006;36.180;2023-05-20T15:57:30;100157.88;;;22.63;42.30
54666;BME280;40566;50.006;36.180;2023-05-20T16:02:30;100154.81;;;22.56;42.40
54666;BME280;40566;50.006;36.180;2023-05-20T16:07:32;100155.25;;;22.50;42.55
54666;BME280;40566;50.006;36.180;2023-05-20T16:12:33;100168.34;;;22.39;42.86
54666;BME280;40566;50.006;36.180;2023-05-20T16:17:34;100160.63;;;22.23;42.69
54666;BME280;40566;50.006;36.180;2023-05-20T16:22:34;100164.88;;;22.13;42.78
54666;BME280;40566;50.006;36.180;2023-05-20T16:27:35;100167.28;;;22.03;43.06
54666;BME280;40566;50.006;36.180;2023-05-20T16:32:36;100173.22;;;21.94;43.09
54666;BME280;40566;50.006;36.180;2023-05-20T16:37:36;100173.94;;;21.83;43.30
54666;BME280;40566;50.006;36.180;2023-05-20T16:42:37;100173.94;;;21.70;43.46
54666;BME280;40566;50.006;36.180;2023-05-20T16:47:39;100178.97;;;21.61;43.41
54666;BME280;40566;50.006;36.180;2023-05-20T16:52:39;100192.81;;;21.50;43.56
54666;BME280;40566;50.006;36.180;2023-05-20T16:57:40;100193.41;;;21.41;43.52
54666;BME280;40566;50.006;36.180;2023-05-20T17:02:42;100199.28;;;21.31;43.42
54666;BME280;40566;50.006;36.180;2023-05-20T17:07:43;100201.00;;;21.18;43.55
54666;BME280;40566;50.006;36.180;2023-05-20T17:12:43;100204.97;;;21.11;43.89
54666;BME280;40566;50.006;36.180;2023-05-20T17:17:44;100202.28;;;20.98;43.78
54666;BME280;40566;50.006;36.180;2023-05-20T17:22:45;100204.50;;;20.91;43.65
54666;BME280;40566;50.006;36.180;2023-05-20T17:27:45;100205.25;;;20.79;43.95
54666;BME280;40566;50.006;36.180;2023-05-20T17:32:46;100208.25;;;20.73;43.99
54666;BME280;40566;50.006;36.180;2023-05-20T17:37:46;100209.03;;;20.60;44.06
54666;BME280;40566;50.006;36.180;2023-05-20T17:42:47;100215.56;;;20.53;44.23
54666;BME280;40566;50.006;36.180;2023-05-20T17:47:48;100212.56;;;20.45;44.36
54666;BME280;40566;50.006;36.180;2023-05-20T17:52:49;100212.28;;;20.35;44.35
54666;BME280;40566;50.006;36.180;2023-05-20T17:57:49;100219.78;;;20.27;44.60
54666;BME280;40566;50.006;36.180;2023-05-20T18:02:50;100218.59;;;20.18;44.98
54666;BME280;40566;50.006;36.180;2023-05-20T18:07:55;100218.94;;;20.12;45.06
54666;BME280;40566;50.006;36.180;2023-05-20T18:12:56;100231.34;;;20.10;44.88
54666;BME280;40566;50.006;36.180;2023-05-20T18:17:57;100240.41;;;20.05;45.16
54666;BME280;40566;50.006;36.180;2023-05-20T18:22:57;100238.25;;;19.97;45.30
54666;BME280;40566;50.006;36.180;2023-05-20T18:27:58;100235.78;;;19.94;45.32
54666;BME280;40566;50.006;36.180;2023-05-20T18:32:58;100227.59;;;19.84;45.20
54666;BME280;40566;50.006;36.180;2023-05-20T18:37:59;100225.53;;;19.75;44.88
54666;BME280;40566;50.006;36.180;2023-05-20T18:43:00;100218.81;;;19.69;45.25
54666;BME280;40566;50.006;36.180;2023-05-20T18:48:01;100221.81;;;19.63;45.09
54666;BME280;40566;50.006;36.180;2023-05-20T18:53:01;100228.94;;;19.61;45.29
54666;BME280;40566;50.006;36.180;2023-05-20T18:58:02;100230.19;;;19.54;45.10
54666;BME280;40566;50.006;36.180;2023-05-20T19:03:03;100239.34;;;19.47;45.18
54666;BME280;40566;50.006;36.180;2023-05-20T19:08:03;100239.53;;;19.44;45.12
54666;BME280;40566;50.006;36.180;2023-05-20T19:13:05;100247.50;;;19.42;44.72
54666;BME280;40566;50.006;36.180;2023-05-20T19:18:05;100239.88;;;19.37;44.73
54666;BME280;40566;50.006;36.180;2023-05-20T19:23:06;100237.63;;;19.31;45.07
54666;BME280;40566;50.006;36.180;2023-05-20T19:28:06;100241.50;;;19.24;45.14
54666;BME280;40566;50.006;36.180;2023-05-20T19:33:07;100235.56;;;19.20;44.99
54666;BME280;40566;50.006;36.180;2023-05-20T19:38:08;100244.47;;;19.18;44.97
54666;BME280;40566;50.006;36.180;2023-05-20T19:43:09;100238.53;;;19.14;45.23
54666;BME280;40566;50.006;36.180;2023-05-20T19:48:09;100254.69;;;19.07;45.42
54666;BME280;40566;50.006;36.180;2023-05-20T19:53:10;100264.91;;;18.95;45.76
54666;BME280;40566;50.006;36.180;2023-05-20T19:58:11;100265.44;;;18.86;46.02
54666;BME280;40566;50.006;36.180;2023-05-20T20:03:12;100261.47;;;18.77;46.11
54666;BME280;40566;50.006;36.180;2023-05-20T20:08:13;100246.94;;;18.72;45.96
54666;BME280;40566;50.006;36.180;2023-05-20T20:13:13;100250.97;;;18.61;45.71
54666;BME280;40566;50.006;36.180;2023-05-20T20:18:14;100250.47;;;18.55;45.14
54666;BME280;40566;50.006;36.180;2023-05-20T20:23:14;100255.94;;;18.50;44.61
54666;BME280;40566;50.006;36.180;2023-05-20T20:28:15;100253.50;;;18.47;44.46
54666;BME280;40566;50.006;36.180;2023-05-20T20:33:15;100254.91;;;18.37;44.44
54666;BME280;40566;50.006;36.180;2023-05-20T20:38:16;100251.66;;;18.32;43.99
54666;BME280;40566;50.006;36.180;2023-05-20T20:43:17;100253.69;;;18.27;44.12
54666;BME280;40566;50.006;36.180;2023-05-20T20:48:18;100239.97;;;18.21;44.17
54666;BME280;40566;50.006;36.180;2023-05-20T20:53:18;100253.06;;;18.21;43.99
54666;BME280;40566;50.006;36.180;2023-05-20T20:58:19;100248.22;;;18.14;43.99
54666;BME280;40566;50.006;36.180;2023-05-20T21:03:20;100241.00;;;18.01;43.98
54666;BME280;40566;50.006;36.180;2023-05-20T21:08:23;100243.94;;;17.95;44.00
54666;BME280;40566;50.006;36.180;2023-05-20T21:13:28;100225.81;;;17.91;43.95
54666;BME280;40566;50.006;36.180;2023-05-20T21:18:29;100233.84;;;17.88;44.18
54666;BME280;40566;50.006;36.180;2023-05-20T21:23:29;100239.97;;;17.87;43.91
54666;BME280;40566;50.006;36.180;2023-05-20T21:28:30;100241.88;;;17.83;43.79
54666;BME280;40566;50.006;36.180;2023-05-20T21:33:31;100252.56;;;17.78;43.59
54666;BME280;40566;50.006;36.180;2023-05-20T21:38:31;100246.03;;;17.70;43.70
54666;BME280;40566;50.006;36.180;2023-05-20T21:43:32;100244.56;;;17.64;43.38
54666;BME280;40566;50.006;36.180;2023-05-20T21:48:32;100237.94;;;17.57;43.48
54666;BME280;40566;50.006;36.180;2023-05-20T21:53:33;100238.31;;;17.49;43.72
54666;BME280;40566;50.006;36.180;2023-05-20T21:58:33;100238.31;;;17.49;42.98
54666;BME280;40566;50.006;36.180;2023-05-20T22:03:39;100229.75;;;17.45;42.92
54666;BME280;40566;50.006;36.180;2023-05-20T22:08:40;100225.00;;;17.36;43.27
54666;BME280;40566;50.006;36.180;2023-05-20T22:13:41;100234.69;;;17.34;43.22
54666;BME280;40566;50.006;36.180;2023-05-20T22:18:42;100214.91;;;17.29;43.24
54666;BME280;40566;50.006;36.180;2023-05-20T22:23:43;100220.19;;;17.27;43.43
54666;BME280;40566;50.006;36.180;2023-05-20T22:28:44;100224.59;;;17.27;43.35
54666;BME280;40566;50.006;36.180;2023-05-20T22:33:45;100220.25;;;17.25;42.89
54666;BME280;40566;50.006;36.180;2023-05-20T22:38:45;100221.97;;;17.27;42.85
54666;BME280;40566;50.006;36.180;2023-05-20T22:43:46;100216.66;;;17.28;42.66
54666;BME280;40566;50.006;36.180;2023-05-20T22:48:46;100226.34;;;17.26;42.40
54666;BME280;40566;50.006;36.180;2023-05-20T22:53:47;100211.94;;;17.17;42.74
54666;BME280;40566;50.006;36.180;2023-05-20T22:58:48;100203.69;;;17.08;42.56
54666;BME280;40566;50.006;36.180;2023-05-20T23:03:49;100198.81;;;17.00;43.20
54666;BME280;40566;50.006;36.180;2023-05-20T23:08:51;100206.75;;;16.98;42.67
54666;BME280;40566;50.006;36.180;2023-05-20T23:13:52;100203.50;;;16.93;42.95
54666;BME280;40566;50.006;36.180;2023-05-20T23:18:52;100196.72;;;16.89;42.73
54666;BME280;40566;50.006;36.180;2023-05-20T23:23:53;100196.19;;;16.82;42.35
54666;BME280;40566;50.006;36.180;2023-05-20T23:28:54;100202.50;;;16.77;42.95
54666;BME280;40566;50.006;36.180;2023-05-20T23:33:55;100194.56;;;16.78;42.98
54666;BME280;40566;50.006;36.180;2023-05-20T23:38:58;100201.63;;;16.76;42.46
54666;BME280;40566;50.006;36.180;2023-05-20T23:43:59;100203.69;;;16.70;43.55
54666;BME280;40566;50.006;36.180;2023-05-20T23:49:00;100197.69;;;16.68;43.26
54666;BME280;40566;50.006;36.180;2023-05-20T23:54:01;100195.91;;;16.68;42.96
54666;BME280;40566;50.006;36.180;2023-05-20T23:59:02;100196.84;;;16.67;43.22
